Time;durP1;ratioP1;P1;durP2;ratioP2;P2;SDS_P1;SDS_P2;PMS_P1;PMS_P2;Temp;Humidity;BMP_temperature;BMP_pressure;BME280_temperature;BME280_humidity;BME280_pressure;Samples;Min_cycle;Max_cycle;Signal;HPM_P1;HPM_P2
2022/08/28 00:00:08;;;;;;;18.70;16.90;;;;;;;18.94;100.00;98517.87;105098;1270;61237;-71
2022/08/28 00:02:55;;;;;;;16.90;14.80;;;;;;;18.96;100.00;98522.61;105062;1270;77161;-71
2022/08/28 00:05:24;;;;;;;17.80;16.00;;;;;;;18.96;100.00;98526.33;104855;1273;68365;-69
2022/08/28 00:07:51;;;;;;;17.80;16.10;;;;;;;18.97;100.00;98530.66;105044;1270;73756;-70
2022/08/28 00:10:19;;;;;;;18.40;15.60;;;;;;;18.98;100.00;98527.05;105023;1270;61375;-70
2022/08/28 00:12:46;;;;;;;16.70;15.00;;;;;;;18.98;100.00;98526.67;105173;1270;61280;-70
2022/08/28 00:15:17;;;;;;;17.50;15.90;;;;;;;18.98;100.00;98524.33;105055;1270;76557;-70
2022/08/28 00:17:44;;;;;;;17.40;15.60;;;;;;;18.99;100.00;98524.22;105065;1270;70254;-71
2022/08/28 00:20:11;;;;;;;17.70;16.10;;;;;;;19.00;100.00;98521.39;105027;1270;73588;-72
2022/08/28 00:22:39;;;;;;;16.60;15.10;;;;;;;19.02;100.00;98513.39;105142;1270;61240;-70
2022/08/28 00:25:08;;;;;;;18.70;16.80;;;;;;;19.05;100.00;98509.50;105118;1270;61374;-70
2022/08/28 00:27:54;;;;;;;18.50;16.70;;;;;;;19.07;100.00;98504.42;105052;1270;76787;-72
2022/08/28 00:30:33;;;;;;;17.20;15.40;;;;;;;19.08;100.00;98502.31;105088;1270;69968;-70
2022/08/28 00:33:03;;;;;;;17.90;16.00;;;;;;;19.08;100.00;98499.21;105085;1270;74366;-70
2022/08/28 00:35:29;;;;;;;16.50;14.80;;;;;;;19.09;100.00;98497.56;105041;1271;61480;-70
2022/08/28 00:37:56;;;;;;;14.90;13.60;;;;;;;19.09;100.00;98497.35;105083;1270;61386;-70
2022/08/28 00:40:26;;;;;;;14.30;12.90;;;;;;;19.08;100.00;98493.98;105062;1271;61374;-70
2022/08/28 00:42:54;;;;;;;15.50;13.90;;;;;;;19.09;100.00;98488.71;105110;1270;70281;-70
2022/08/28 00:45:23;;;;;;;15.10;13.60;;;;;;;19.10;100.00;98483.95;105058;1270;74454;-70
2022/08/28 00:47:49;;;;;;;15.10;13.60;;;;;;;19.10;100.00;98485.20;105091;1270;61305;-70
2022/08/28 00:50:18;;;;;;;14.90;13.50;;;;;;;19.10;100.00;98487.02;105071;1270;61320;-70
2022/08/28 00:52:48;;;;;;;16.30;14.80;;;;;;;19.09;100.00;98489.60;105220;1270;75398;-70
2022/08/28 00:55:21;;;;;;;15.80;13.90;;;;;;;19.08;100.00;98493.87;105127;1270;70281;-70
2022/08/28 00:57:52;;;;;;;17.10;15.30;;;;;;;19.04;100.00;98497.70;105173;1270;74712;-70
2022/08/28 01:00:32;;;;;;;15.90;14.50;;;;;;;18.99;100.00;98498.34;105116;1270;61317;-71
2022/08/28 01:02:59;;;;;;;17.20;15.40;;;;;;;18.93;100.00;98495.91;105117;1270;61266;-71
2022/08/28 01:05:27;;;;;;;18.70;16.10;;;;;;;18.91;100.00;98500.66;105105;1270;75565;-71
2022/08/28 01:07:57;;;;;;;17.60;15.70;;;;;;;18.90;100.00;98495.56;105078;1270;68356;-71
2022/08/28 01:10:25;;;;;;;18.40;16.60;;;;;;;18.89;100.00;98491.98;104955;1270;73406;-70
2022/08/28 01:12:55;;;;;;;17.60;15.60;;;;;;;18.89;100.00;98491.15;105092;1271;61433;-70
2022/08/28 01:15:27;;;;;;;18.60;16.40;;;;;;;18.87;100.00;98494.91;104891;1270;62520;-70
2022/08/28 01:17:59;;;;;;;18.90;17.00;;;;;;;18.84;100.00;98498.23;105117;1270;75383;-70
2022/08/28 01:20:29;;;;;;;19.00;17.10;;;;;;;18.83;100.00;98498.23;105077;1270;69480;-70
2022/08/28 01:23:12;;;;;;;18.90;17.10;;;;;;;18.84;100.00;98495.02;105159;1270;74331;-70
2022/08/28 01:25:39;;;;;;;18.30;16.40;;;;;;;18.86;100.00;98495.94;105073;1270;61304;-70
2022/08/28 01:28:10;;;;;;;19.40;17.10;;;;;;;18.86;100.00;98494.41;105117;1270;62030;-69
2022/08/28 01:30:43;;;;;;;17.70;15.80;;;;;;;18.87;100.00;98499.75;105073;1270;75224;-69
2022/08/28 01:33:10;;;;;;;17.70;16.00;;;;;;;18.88;100.00;98499.16;105065;1270;69082;-70
2022/08/28 01:35:40;;;;;;;17.40;15.60;;;;;;;18.89;100.00;98504.45;105067;1270;73768;-70
2022/08/28 01:38:06;;;;;;;17.40;15.70;;;;;;;18.89;100.00;98502.98;105129;1270;61498;-71
2022/08/28 01:40:37;;;;;;;18.10;16.00;;;;;;;18.89;100.00;98508.42;105094;1270;61279;-70
2022/08/28 01:43:12;;;;;;;18.00;16.20;;;;;;;18.85;100.00;98513.24;105077;1270;75148;-70
2022/08/28 01:45:41;;;;;;;17.20;15.50;;;;;;;18.83;100.00;98517.83;105069;1270;71025;-70
2022/08/28 01:48:07;;;;;;;17.60;16.10;;;;;;;18.79;100.00;98522.59;105102;1270;73574;-69
2022/08/28 01:50:34;;;;;;;16.80;15.20;;;;;;;18.75;100.00;98526.80;105061;1270;61241;-71
2022/08/28 01:53:02;;;;;;;17.60;16.00;;;;;;;18.71;100.00;98523.63;105101;1269;61311;-70
2022/08/28 01:55:28;;;;;;;19.40;17.40;;;;;;;18.68;100.00;98525.20;105119;1270;76648;-72
2022/08/28 01:57:55;;;;;;;19.40;17.60;;;;;;;18.65;100.00;98525.84;105058;1269;61384;-70
2022/08/28 02:00:47;;;;;;;19.20;17.10;;;;;;;18.64;100.00;98524.34;105108;1270;61282;-70
2022/08/28 02:03:13;;;;;;;18.00;16.10;;;;;;;18.62;100.00;98526.40;104861;1271;61163;-72
2022/08/28 02:05:40;;;;;;;19.90;18.00;;;;;;;18.60;100.00;98528.73;105074;1270;61369;-70
2022/08/28 02:08:06;;;;;;;20.50;18.40;;;;;;;18.60;100.00;98532.00;105080;1270;61391;-70
2022/08/28 02:10:36;;;;;;;19.60;17.70;;;;;;;18.57;100.00;98535.23;105130;1270;61274;-70
2022/08/28 02:13:03;;;;;;;20.50;18.60;;;;;;;18.53;100.00;98535.05;105148;1270;74536;-70
2022/08/28 02:15:32;;;;;;;20.50;18.40;;;;;;;18.51;100.00;98536.59;105085;1270;61305;-72
2022/08/28 02:17:58;;;;;;;20.30;18.50;;;;;;;18.49;100.00;98538.21;105109;1270;61362;-71
2022/08/28 02:20:27;;;;;;;19.60;17.80;;;;;;;18.47;100.00;98540.92;105083;1270;61315;-71
2022/08/28 02:22:54;;;;;;;20.90;18.60;;;;;;;18.43;100.00;98538.84;105133;1270;70577;-70
2022/08/28 02:25:21;;;;;;;19.10;17.30;;;;;;;18.41;100.00;98543.38;105097;1270;74364;-71
2022/08/28 02:27:47;;;;;;;19.50;17.60;;;;;;;18.41;100.00;98545.91;105119;1270;61381;-71
2022/08/28 02:30:16;;;;;;;19.40;17.40;;;;;;;18.41;100.00;98545.01;105097;1270;61292;-72
2022/08/28 02:32:44;;;;;;;19.00;17.30;;;;;;;18.42;100.00;98544.15;105114;1270;76400;-71
2022/08/28 02:35:13;;;;;;;20.00;18.10;;;;;;;18.42;100.00;98536.73;105041;1270;69497;-73
2022/08/28 02:37:41;;;;;;;19.60;17.70;;;;;;;18.43;100.00;98533.74;105143;1270;73543;-71
2022/08/28 02:40:08;;;;;;;19.30;17.60;;;;;;;18.46;100.00;98532.48;105085;1268;61473;-72
2022/08/28 02:42:34;;;;;;;18.80;17.10;;;;;;;18.46;100.00;98531.15;105005;1270;61178;-71
2022/08/28 02:45:00;;;;;;;19.40;17.50;;;;;;;18.47;100.00;98532.51;104903;1270;61352;-71
2022/08/28 02:47:26;;;;;;;17.70;16.10;;;;;;;18.46;100.00;98531.71;105106;1270;61242;-72
2022/08/28 02:49:52;;;;;;;18.10;16.60;;;;;;;18.43;100.00;98529.80;105095;1270;61327;-71
2022/08/28 02:52:18;;;;;;;19.40;17.50;;;;;;;18.43;100.00;98527.32;105067;1270;61359;-71
2022/08/28 02:54:45;;;;;;;18.10;16.50;;;;;;;18.42;100.00;98525.56;105132;1270;61244;-70
2022/08/28 02:57:11;;;;;;;18.20;16.40;;;;;;;18.43;100.00;98521.20;105084;1270;61364;-71
2022/08/28 02:59:37;;;;;;;17.60;16.10;;;;;;;18.43;100.00;98521.73;104899;1270;61480;-71
2022/08/28 03:02:05;;;;;;;17.70;16.20;;;;;;;18.43;100.00;98519.73;105070;1270;61354;-69
2022/08/28 03:04:34;;;;;;;17.80;16.20;;;;;;;18.43;100.00;98522.08;105157;1270;61357;-71
2022/08/28 03:07:01;;;;;;;17.50;15.70;;;;;;;18.44;100.00;98518.61;105209;1270;61812;-69
2022/08/28 03:09:26;;;;;;;17.00;15.20;;;;;;;18.45;100.00;98517.48;105079;1270;61392;-70
2022/08/28 03:11:53;;;;;;;16.80;15.20;;;;;;;18.45;100.00;98514.58;105088;1270;61384;-70
2022/08/28 03:14:25;;;;;;;17.50;15.70;;;;;;;18.45;100.00;98508.05;105062;1270;61368;-72
2022/08/28 03:16:51;;;;;;;17.20;15.30;;;;;;;18.46;100.00;98514.11;105123;1270;61486;-71
2022/08/28 03:19:17;;;;;;;16.50;14.90;;;;;;;18.47;100.00;98517.45;105100;1270;61238;-69
2022/08/28 03:21:43;;;;;;;17.60;15.70;;;;;;;18.46;100.00;98521.06;105072;1270;61286;-70
2022/08/28 03:24:09;;;;;;;15.90;14.50;;;;;;;18.45;100.00;98529.48;105073;1270;61329;-70
2022/08/28 03:26:35;;;;;;;17.40;15.70;;;;;;;18.39;100.00;98531.54;105059;1270;61320;-70
2022/08/28 03:29:02;;;;;;;16.40;14.80;;;;;;;18.33;100.00;98539.50;105034;1270;61298;-71
2022/08/28 03:31:32;;;;;;;16.60;15.00;;;;;;;18.28;100.00;98538.61;104903;1270;61325;-69
2022/08/28 03:33:58;;;;;;;18.60;15.50;;;;;;;18.26;100.00;98536.72;105067;1270;76745;-70
2022/08/28 03:36:26;;;;;;;15.40;14.00;;;;;;;18.26;100.00;98543.19;105074;1270;70654;-70
2022/08/28 03:38:55;;;;;;;16.00;14.20;;;;;;;18.26;100.00;98548.76;105103;1270;73349;-69
2022/08/28 03:41:23;;;;;;;16.10;14.60;;;;;;;18.25;100.00;98558.27;105121;1270;61385;-71
2022/08/28 03:43:50;;;;;;;16.30;14.80;;;;;;;18.20;100.00;98558.85;104904;1270;61230;-69
2022/08/28 03:46:19;;;;;;;17.70;15.60;;;;;;;18.19;100.00;98562.59;105040;1270;76487;-70
2022/08/28 03:48:45;;;;;;;18.10;16.30;;;;;;;18.17;100.00;98563.16;104994;1270;68790;-70
2022/08/28 03:51:15;;;;;;;18.10;15.90;;;;;;;18.17;100.00;98562.23;105071;1270;61419;-70
2022/08/28 03:53:42;;;;;;;16.70;15.10;;;;;;;18.19;100.00;98560.68;105093;1270;61384;-70
2022/08/28 03:56:11;;;;;;;17.50;15.00;;;;;;;18.20;100.00;98561.82;105100;1270;62045;-70
2022/08/28 03:58:41;;;;;;;17.10;15.20;;;;;;;18.20;100.00;98566.27;105181;1270;75667;-70
2022/08/28 04:01:07;;;;;;;;;;;;;;;18.18;100.00;98566.79;105106;1270;70381;-71
2022/08/28 04:03:34;;;;;;;17.40;15.90;;;;;;;18.17;100.00;98568.92;105050;1270;61191;-71
2022/08/28 04:06:00;;;;;;;19.30;17.30;;;;;;;18.18;100.00;98574.64;105049;1270;61345;-72
2022/08/28 04:08:28;;;;;;;17.10;15.30;;;;;;;18.19;100.00;98582.20;105074;1270;61386;-70
2022/08/28 04:10:54;;;;;;;16.50;15.00;;;;;;;18.20;100.00;98588.01;105104;1270;76366;-70
2022/08/28 04:13:21;;;;;;;17.70;14.70;;;;;;;18.21;100.00;98590.61;105064;1270;61292;-71
2022/08/28 04:16:01;;;;;;;17.50;15.80;;;;;;;18.21;100.00;98592.13;104578;1270;72752;-70
2022/08/28 04:18:28;;;;;;;18.00;15.70;;;;;;;18.21;100.00;98594.55;104911;1270;61301;-70
2022/08/28 04:21:08;;;;;;;17.60;15.70;;;;;;;18.20;100.00;98598.45;105116;1270;61364;-70
2022/08/28 04:23:37;;;;;;;15.90;14.20;;;;;;;18.27;100.00;98600.28;105086;1270;76447;-70
2022/08/28 04:26:05;;;;;;;16.20;14.10;;;;;;;18.27;100.00;98601.48;105104;1270;68554;-71
2022/08/28 04:28:31;;;;;;;15.80;14.00;;;;;;;18.26;100.00;98605.23;105041;1270;73633;-71
2022/08/28 04:30:58;;;;;;;16.00;14.40;;;;;;;18.28;100.00;98598.92;105065;1270;61263;-71
2022/08/28 04:33:27;;;;;;;15.30;13.80;;;;;;;18.30;100.00;98596.91;104876;1270;61212;-71
2022/08/28 04:35:54;;;;;;;15.20;13.80;;;;;;;18.33;100.00;98596.94;105067;1270;76389;-70
2022/08/28 04:38:20;;;;;;;18.10;14.80;;;;;;;18.36;100.00;98592.30;105148;1270;70334;-71
2022/08/28 04:40:47;;;;;;;16.10;14.50;;;;;;;18.39;100.00;98592.48;105012;1270;73529;-71
2022/08/28 04:43:13;;;;;;;15.70;14.10;;;;;;;18.45;100.00;98588.86;105076;1270;61506;-72
2022/08/28 04:45:43;;;;;;;15.30;13.60;;;;;;;18.52;100.00;98582.17;105062;1270;61153;-72
2022/08/28 04:48:12;;;;;;;16.20;13.90;;;;;;;18.69;100.00;98581.09;105074;1270;75042;-70
2022/08/28 04:50:40;;;;;;;15.40;13.90;;;;;;;19.14;100.00;98580.52;105078;1270;70481;-71
2022/08/28 04:53:06;;;;;;;14.70;12.10;;;;;;;19.37;100.00;98587.45;105136;1270;73484;-71
2022/08/28 04:55:32;;;;;;;13.60;12.00;;;;;;;19.32;100.00;98588.32;105040;1270;61391;-72
2022/08/28 04:57:59;;;;;;;13.30;12.10;;;;;;;19.59;100.00;98585.11;105061;1270;61300;-71
2022/08/28 05:00:25;;;;;;;11.80;10.80;;;;;;;20.12;100.00;98579.23;105136;1269;61219;-71
2022/08/28 05:02:52;;;;;;;11.80;10.60;;;;;;;20.58;100.00;98580.89;105030;1270;61270;-72
2022/08/28 05:05:18;;;;;;;11.20;10.00;;;;;;;20.98;100.00;98579.25;105048;1270;61401;-71
2022/08/28 05:07:44;;;;;;;10.70;9.70;;;;;;;21.39;100.00;98577.61;105084;1267;61424;-71
2022/08/28 05:10:11;;;;;;;13.10;9.70;;;;;;;21.79;100.00;98574.42;105063;1270;61324;-71
2022/08/28 05:12:37;;;;;;;12.70;9.50;;;;;;;22.23;100.00;98573.41;105082;1270;61378;-71
2022/08/28 05:15:03;;;;;;;11.40;9.20;;;;;;;22.63;100.00;98579.24;105048;1270;61369;-71
2022/08/28 05:17:29;;;;;;;9.30;8.30;;;;;;;22.92;100.00;98581.11;104933;1271;61481;-71
2022/08/28 05:19:55;;;;;;;12.10;9.00;;;;;;;23.16;100.00;98577.73;105021;1270;61302;-71
2022/08/28 05:22:22;;;;;;;10.70;8.80;;;;;;;23.39;100.00;98576.76;105136;1270;61286;-71
2022/08/28 05:24:48;;;;;;;9.70;8.30;;;;;;;23.70;100.00;98571.26;105086;1270;61135;-71
2022/08/28 05:27:14;;;;;;;11.20;8.50;;;;;;;23.95;100.00;98574.39;105055;1270;61378;-72
2022/08/28 05:29:40;;;;;;;8.50;7.70;;;;;;;24.13;100.00;98578.02;105036;1270;61382;-72
2022/08/28 05:32:07;;;;;;;9.50;8.00;;;;;;;24.34;100.00;98579.07;105069;1270;61271;-72
2022/08/28 05:34:32;;;;;;;8.70;7.90;;;;;;;24.56;100.00;98574.39;105028;1270;76340;-71
2022/08/28 05:36:59;;;;;;;8.90;7.90;;;;;;;24.66;100.00;98573.25;105038;1270;61309;-71
2022/08/28 05:39:25;;;;;;;8.50;7.60;;;;;;;24.80;100.00;98573.10;105028;1270;61351;-71
2022/08/28 05:41:50;;;;;;;7.90;7.10;;;;;;;24.92;100.00;98576.53;105025;1270;61279;-71
2022/08/28 05:44:17;;;;;;;7.80;7.00;;;;;;;25.07;100.00;98570.48;105073;1270;61329;-72
2022/08/28 05:46:48;;;;;;;9.00;7.40;;;;;;;25.26;100.00;98571.64;105071;1270;61202;-72
2022/08/28 05:49:16;;;;;;;8.90;8.10;;;;;;;25.42;100.00;98569.86;105161;1270;69399;-74
2022/08/28 05:51:42;;;;;;;10.00;7.20;;;;;;;25.35;100.00;98568.30;105117;1270;73608;-71
2022/08/28 05:54:10;;;;;;;8.80;7.40;;;;;;;25.37;100.00;98558.98;105042;1270;61301;-71
2022/08/28 05:56:38;;;;;;;8.40;7.40;;;;;;;25.71;100.00;98555.50;105042;1270;61581;-71
2022/08/28 05:59:06;;;;;;;7.60;6.60;;;;;;;25.69;100.00;98560.29;104974;1271;75539;-71
2022/08/28 06:01:37;;;;;;;8.80;7.30;;;;;;;25.68;100.00;98562.85;105083;1270;70379;-71
2022/08/28 06:04:07;;;;;;;8.70;7.80;;;;;;;25.70;100.00;98563.43;105011;1271;74563;-72
2022/08/28 06:06:35;;;;;;;9.30;6.70;;;;;;;25.80;100.00;98566.64;105079;1270;61166;-72
2022/08/28 06:09:15;;;;;;;8.20;7.30;;;;;;;25.88;100.00;98566.86;105131;1270;61929;-70
2022/08/28 06:11:42;;;;;;;8.50;7.70;;;;;;;25.97;100.00;98568.10;105047;1270;76372;-70
2022/08/28 06:14:10;;;;;;;9.80;7.60;;;;;;;26.04;100.00;98569.70;105032;1270;70723;-72
2022/08/28 06:16:40;;;;;;;7.80;7.00;;;;;;;26.17;100.00;98573.41;104840;1270;73067;-73
2022/08/28 06:19:08;;;;;;;;;;;;;;;26.18;100.00;98570.95;105061;1270;61533;-71
2022/08/28 06:21:36;;;;;;;7.90;7.00;;;;;;;26.11;100.00;98567.37;102848;1270;3106899;-72
2022/08/28 06:24:03;;;;;;;7.10;6.40;;;;;;;26.11;100.00;98567.41;105140;1270;76326;-71
2022/08/28 06:26:29;;;;;;;7.10;6.50;;;;;;;26.22;100.00;98564.87;104986;1270;71009;-72
2022/08/28 06:29:00;;;;;;;11.60;6.90;;;;;;;26.22;100.00;98564.02;105018;1270;61291;-71
2022/08/28 06:31:28;;;;;;;8.60;7.60;;;;;;;26.17;100.00;98562.11;105189;1270;61429;-71
2022/08/28 06:33:56;;;;;;;7.20;6.50;;;;;;;26.11;100.00;98561.61;105065;1270;61189;-71
2022/08/28 06:36:26;;;;;;;11.90;7.20;;;;;;;26.19;100.00;98567.39;105062;1270;76977;-71
2022/08/28 06:38:56;;;;;;;8.10;7.30;;;;;;;26.27;100.00;98573.55;105079;1270;69521;-71
2022/08/28 06:41:24;;;;;;;8.10;7.20;;;;;;;26.32;100.00;98570.38;104914;1270;73641;-71
2022/08/28 06:43:50;;;;;;;9.00;7.50;;;;;;;26.30;100.00;98572.95;105078;1270;61174;-71
2022/08/28 06:46:16;;;;;;;9.70;7.30;;;;;;;26.31;100.00;98572.28;105060;1270;61346;-72
2022/08/28 06:48:42;;;;;;;10.80;7.60;;;;;;;26.27;100.00;98573.27;104830;1270;61473;-72
2022/08/28 06:51:10;;;;;;;8.10;6.60;;;;;;;26.19;100.00;98575.50;105015;1270;61475;-72
2022/08/28 06:53:38;;;;;;;9.70;6.90;;;;;;;26.11;100.00;98575.69;105046;1270;73358;-70
2022/08/28 06:56:10;;;;;;;8.60;7.40;;;;;;;26.00;100.00;98575.59;104895;1271;61291;-72
2022/08/28 06:58:39;;;;;;;9.80;7.50;;;;;;;25.93;100.00;98573.41;105074;1270;61346;-71
2022/08/28 07:01:10;;;;;;;;;;;;;;;25.85;100.00;98576.69;105013;1270;74288;-70
2022/08/28 07:03:39;;;;;;;8.20;7.30;;;;;;;25.76;100.00;98579.48;105078;1270;69482;-71
2022/08/28 07:06:08;;;;;;;9.60;7.70;;;;;;;25.71;100.00;98580.61;104884;1270;74315;-72
2022/08/28 07:08:35;;;;;;;8.40;7.30;;;;;;;25.74;100.00;98577.52;105068;1270;61334;-72
2022/08/28 07:11:16;;;;;;;8.50;7.10;;;;;;;25.73;100.00;98578.67;105035;1270;61267;-71
2022/08/28 07:13:44;;;;;;;7.70;6.90;;;;;;;25.65;100.00;98572.42;105053;1270;75529;-71
2022/08/28 07:16:13;;;;;;;7.60;6.80;;;;;;;25.58;100.00;98572.63;105077;1270;69450;-71
2022/08/28 07:18:40;;;;;;;7.10;6.40;;;;;;;25.60;100.00;98573.58;105140;1270;73640;-71
2022/08/28 07:21:06;;;;;;;8.80;6.80;;;;;;;25.64;100.00;98573.69;105049;1270;61372;-71
2022/08/28 07:23:35;;;;;;;7.60;6.80;;;;;;;25.70;100.00;98568.35;104992;1270;61308;-71
2022/08/28 07:26:07;;;;;;;8.00;6.50;;;;;;;25.81;100.00;98564.66;105055;1270;76443;-71
2022/08/28 07:28:34;;;;;;;7.20;6.50;;;;;;;25.92;100.00;98569.20;105017;1270;69722;-72
2022/08/28 07:31:08;;;;;;;7.00;5.70;;;;;;;25.99;100.00;98567.64;104892;1270;72837;-71
2022/08/28 07:33:36;;;;;;;7.20;6.00;;;;;;;26.04;100.00;98562.80;105024;1270;61312;-71
2022/08/28 07:36:05;;;;;;;6.60;6.00;;;;;;;26.11;100.00;98565.36;105044;1270;61349;-71
2022/08/28 07:38:32;;;;;;;7.40;6.50;;;;;;;26.04;100.00;98563.67;105068;1270;76440;-71
2022/08/28 07:40:58;;;;;;;6.80;6.10;;;;;;;25.96;100.00;98566.30;105049;1270;61269;-72
2022/08/28 07:46:10;;;;;;;7.20;5.80;;;;;;;25.92;100.00;98569.20;104994;1270;61272;-71
2022/08/28 07:48:41;;;;;;;7.00;6.30;;;;;;;25.94;100.00;98567.57;105054;1270;61936;-71
2022/08/28 07:51:08;;;;;;;10.10;7.30;;;;;;;26.02;100.00;98572.52;104976;1270;76373;-71
2022/08/28 07:53:36;;;;;;;7.10;6.30;;;;;;;26.12;100.00;98570.95;105022;1270;70598;-72
2022/08/28 07:56:03;;;;;;;9.30;7.30;;;;;;;26.21;100.00;98571.25;104920;1271;74336;-72
2022/08/28 07:58:30;;;;;;;6.80;6.10;;;;;;;26.24;100.00;98572.73;104999;1270;61362;-72
2022/08/28 08:00:56;;;;;;;7.20;6.10;;;;;;;26.20;100.00;98571.76;104997;1270;61261;-72
2022/08/28 08:03:23;;;;;;;6.70;6.00;;;;;;;26.05;100.00;98567.72;104993;1270;61298;-72
2022/08/28 08:05:54;;;;;;;6.40;5.80;;;;;;;25.91;100.00;98571.23;105018;1270;70944;-72
2022/08/28 08:08:21;;;;;;;7.90;6.40;;;;;;;25.85;100.00;98569.59;105054;1268;74459;-72
2022/08/28 08:10:58;;;;;;;6.90;6.30;;;;;;;25.88;100.00;98573.23;105029;1270;61303;-71
2022/08/28 08:13:24;;;;;;;6.60;6.10;;;;;;;25.95;100.00;98568.57;105059;1270;61247;-70
2022/08/28 08:15:51;;;;;;;6.50;5.90;;;;;;;25.92;100.00;98572.69;104882;1270;76123;-71
2022/08/28 08:18:18;;;;;;;7.50;6.70;;;;;;;25.81;100.00;98570.80;104841;1270;68668;-71
2022/08/28 08:20:44;;;;;;;7.40;6.60;;;;;;;25.67;100.00;98576.25;104977;1270;61285;-72
2022/08/28 08:23:12;;;;;;;8.40;6.70;;;;;;;25.61;100.00;98576.46;104873;1271;61292;-72
2022/08/28 08:25:38;;;;;;;7.70;6.20;;;;;;;25.54;100.00;98580.65;104984;1270;61366;-72
2022/08/28 08:28:04;;;;;;;7.90;6.60;;;;;;;25.48;100.00;98578.67;105015;1270;61295;-72
2022/08/28 08:30:31;;;;;;;8.90;7.00;;;;;;;25.41;100.00;98582.88;105129;1270;61268;-71
2022/08/28 08:32:57;;;;;;;6.90;6.40;;;;;;;25.35;100.00;98582.08;105140;1270;61378;-71
2022/08/28 08:35:23;;;;;;;8.00;7.20;;;;;;;25.31;100.00;98585.33;105111;1270;61393;-71
2022/08/28 08:37:50;;;;;;;8.80;7.40;;;;;;;25.29;100.00;98584.65;104903;1270;61434;-71
2022/08/28 08:40:18;;;;;;;9.20;7.90;;;;;;;25.27;100.00;98583.86;105022;1270;61309;-71
2022/08/28 08:42:47;;;;;;;9.20;8.40;;;;;;;25.26;100.00;98582.17;105036;1270;69427;-71
2022/08/28 08:45:17;;;;;;;10.40;9.30;;;;;;;25.26;100.00;98582.14;105102;1270;73508;-70
2022/08/28 08:47:47;;;;;;;10.90;9.70;;;;;;;25.30;100.00;98581.55;105020;1270;61304;-71
2022/08/28 08:50:19;;;;;;;10.90;9.80;;;;;;;25.31;100.00;98585.84;105050;1270;61441;-72
2022/08/28 08:53:13;;;;;;;12.00;10.90;;;;;;;25.31;100.00;98589.98;105045;1270;73941;-72
2022/08/28 08:55:51;;;;;;;11.20;10.20;;;;;;;25.32;100.00;98592.39;104586;1276;69480;-69
2022/08/28 08:58:29;;;;;;;13.30;12.10;;;;;;;25.30;100.00;98594.43;104610;1276;73464;-70
2022/08/28 09:01:08;;;;;;;13.60;12.30;;;;;;;25.31;100.00;98594.95;104565;1276;61519;-71
2022/08/28 09:04:21;;;;;;;13.40;12.00;;;;;;;25.36;100.00;98601.23;104587;1276;62374;-71
2022/08/28 09:06:58;;;;;;;12.90;11.80;;;;;;;25.47;100.00;98603.02;104031;1283;75275;-71
2022/08/28 09:09:33;;;;;;;13.90;12.60;;;;;;;25.52;100.00;98604.83;103979;1283;70318;-71
2022/08/28 09:12:02;;;;;;;13.20;12.00;;;;;;;25.55;100.00;98610.25;104065;1283;73461;-71
2022/08/28 09:15:07;;;;;;;14.10;12.70;;;;;;;25.59;100.00;98612.95;104040;1283;61304;-71
2022/08/28 09:17:43;;;;;;;14.00;12.70;;;;;;;25.68;100.00;98615.92;103962;1283;61502;-72
2022/08/28 09:20:13;;;;;;;15.10;13.70;;;;;;;25.79;100.00;98621.60;103996;1283;75412;-72
2022/08/28 09:22:44;;;;;;;14.20;12.90;;;;;;;25.84;100.00;98623.60;104112;1283;70342;-71
2022/08/28 09:25:32;;;;;;;13.70;12.50;;;;;;;25.96;100.00;98620.49;104041;1283;74914;-71
2022/08/28 09:28:08;;;;;;;14.30;13.10;;;;;;;26.19;100.00;98616.48;103944;1283;61213;-71
2022/08/28 09:30:42;;;;;;;14.60;13.20;;;;;;;26.41;100.00;98618.11;104080;1283;61935;-72
2022/08/28 09:33:08;;;;;;;14.60;13.30;;;;;;;26.62;100.00;98610.81;104163;1280;75502;-70
2022/08/28 09:35:36;;;;;;;15.10;13.80;;;;;;;26.81;100.00;98610.19;104522;1280;61214;-71
2022/08/28 09:38:22;;;;;;;13.70;12.40;;;;;;;27.02;100.00;98610.98;104764;1270;74484;-71
2022/08/28 09:43:44;;;;;;;13.60;12.40;;;;;;;27.46;100.00;98613.27;105041;1270;61324;-72
2022/08/28 09:46:24;;;;;;;14.60;13.40;;;;;;;27.47;100.00;98611.41;104984;1271;76307;-71
2022/08/28 09:48:53;;;;;;;15.20;13.60;;;;;;;27.53;100.00;98611.84;104979;1270;69827;-71
2022/08/28 09:51:20;;;;;;;16.70;15.20;;;;;;;27.51;100.00;98612.05;104896;1270;73420;-71
2022/08/28 09:53:53;;;;;;;15.60;14.20;;;;;;;27.45;100.00;98614.16;105016;1270;61179;-73
2022/08/28 09:56:32;;;;;;;16.00;14.50;;;;;;;27.44;100.00;98615.27;104857;1270;61896;-72
2022/08/28 09:59:00;;;;;;;14.90;13.70;;;;;;;27.35;100.00;98615.16;105042;1270;75558;-72
2022/08/28 10:01:48;;;;;;;15.90;14.60;;;;;;;27.23;100.00;98618.38;105042;1270;69409;-71
2022/08/28 10:04:21;;;;;;;16.50;14.90;;;;;;;27.12;100.00;98619.59;105023;1270;73205;-72
2022/08/28 10:06:55;;;;;;;17.00;15.40;;;;;;;27.02;100.00;98619.19;105132;1270;61167;-71
2022/08/28 10:09:30;;;;;;;16.30;14.90;;;;;;;26.95;100.00;98618.79;105020;1270;61224;-72
2022/08/28 10:12:39;;;;;;;17.20;15.60;;;;;;;26.88;100.00;98614.95;105044;1270;75412;-71
2022/08/28 10:15:45;;;;;;;16.70;15.30;;;;;;;26.86;100.00;98612.52;104578;1270;67537;-70
2022/08/28 10:18:17;;;;;;;17.10;15.40;;;;;;;26.85;100.00;98612.48;104722;1277;74317;-71
2022/08/28 10:21:02;;;;;;;16.60;15.20;;;;;;;26.96;100.00;98616.48;104713;1277;61328;-72
2022/08/28 10:23:51;;;;;;;16.80;15.20;;;;;;;27.05;100.00;98612.67;104781;1277;61228;-70
2022/08/28 10:26:44;;;;;;;17.10;15.60;;;;;;;27.11;100.00;98617.54;104757;1277;74845;-71
2022/08/28 10:29:09;;;;;;;18.20;16.20;;;;;;;27.20;100.00;98616.84;104790;1277;69410;-70
2022/08/28 10:31:55;;;;;;;17.30;15.60;;;;;;;27.33;100.00;98614.20;104721;1277;61364;-72
2022/08/28 10:34:39;;;;;;;16.40;14.90;;;;;;;27.44;100.00;98612.70;104778;1277;61385;-72
2022/08/28 10:37:19;;;;;;;15.60;14.20;;;;;;;27.50;100.00;98614.13;104763;1277;61334;-72
2022/08/28 10:39:57;;;;;;;15.30;13.90;;;;;;;27.54;100.00;98611.02;104758;1277;75010;-71
2022/08/28 10:42:29;;;;;;;14.90;13.50;;;;;;;27.60;100.00;98612.80;104778;1277;69548;-72
2022/08/28 10:45:04;;;;;;;15.60;14.20;;;;;;;27.60;100.00;98611.92;104750;1277;74476;-73
2022/08/28 10:47:35;;;;;;;15.40;14.00;;;;;;;27.69;100.00;98607.75;104745;1277;61277;-72
2022/08/28 10:50:12;;;;;;;15.20;13.80;;;;;;;27.81;100.00;98606.85;104780;1277;61364;-71
2022/08/28 10:52:45;;;;;;;15.80;14.40;;;;;;;27.87;100.00;98606.84;104775;1277;76505;-71
2022/08/28 10:55:22;;;;;;;16.10;14.60;;;;;;;27.90;100.00;98604.36;104846;1271;70327;-71
2022/08/28 10:57:59;;;;;;;16.10;14.60;;;;;;;28.00;100.00;98601.88;105073;1270;74693;-70
2022/08/28 11:01:01;;;;;;;15.70;14.50;;;;;;;28.05;100.00;98601.98;104966;1270;61833;-74
2022/08/28 11:03:32;;;;;;;15.20;13.80;;;;;;;28.15;100.00;98596.88;104956;1270;61392;-73
2022/08/28 11:06:12;;;;;;;14.10;12.90;;;;;;;28.24;100.00;98599.63;105051;1270;76311;-73
2022/08/28 11:08:38;;;;;;;15.80;14.40;;;;;;;28.36;100.00;98596.59;104891;1271;70414;-73
2022/08/28 11:11:12;;;;;;;14.70;13.40;;;;;;;28.40;100.00;98600.92;105134;1270;73269;-72
2022/08/28 11:13:44;;;;;;;14.00;12.70;;;;;;;28.38;100.00;98596.38;104858;1270;61225;-73
2022/08/28 11:16:30;;;;;;;15.20;13.80;;;;;;;28.46;100.00;98598.83;105029;1270;61346;-73
2022/08/28 11:19:10;;;;;;;15.10;13.80;;;;;;;28.53;100.00;98599.72;104508;1278;75507;-73
2022/08/28 11:22:15;;;;;;;16.30;14.70;;;;;;;28.61;100.00;98604.13;104432;1277;68861;-74
2022/08/28 11:25:15;;;;;;;15.20;14.00;;;;;;;28.74;100.00;98600.27;104036;1283;72999;-75
2022/08/28 11:28:10;;;;;;;14.80;13.50;;;;;;;28.89;100.00;98601.25;103011;1294;61319;-74